首页
METAR-TAF:

METAR-TAF

机场 :

吉达, 沙特阿拉伯

阿卜杜勒-阿齐兹国王国际机场

纬度: 21-42N, 经度: 039-11E, 海拔: 15米

当前天气观测

该预报发布于38分钟前的01:00 UTC
风速4节,风向西转西北
温度 20°C
湿度 64%
气压 1013 hPa
能见度10公里或以上
1500米以下无云,无积雨云

METAR: OEJN 190100Z 29004KT CAVOK 20/13 Q1013 NOSIG

时间: 04:38 (01:38 UTC)

预报

该预报发布于2小时和38分钟前的23:00 UTC
预报有效从19日的 00点(UTC)到 20日的 06点(UTC)
风速6节,风向东北
能見度: 7000
成为
从 19日的 06点(UTC)到 19日的 08点(UTC)
风速8节,风向北转西北,有时为18节阵风

TAF: OEJN 182300Z 1900/2006 05006KT 7000 NSC BECMG 1906/1908 33008G18KT

超过4000个机场的气象观测和天气预报(METAR&TAF报告)。

可查询的气象台以黄色和红色小点在地图上表示。

将鼠标移到小点上方,可查看气象台名称。

然后点击查看天气观测和预报。

如需切换地图:点击带黑十字的绿色按钮放大地图;点击带横线的绿色按钮缩小地图;或者点击绿色箭头查看邻近地区的地图。


METAR-TAF: